Weather at Milos Airport

Public forecast

Using degrees Celsius for public forecast. Weather courtesy of forecast.io.

Closest aviation weather report (METAR) to Milos Airport

Report is more than 6 hours old.

Closest report is Paros National Airport, 36.2 nm (67.1 km) ENE.

2022/11/14 15:20 (retrieved 2 years ago)

LGPA 141520Z AUTO 36018KT //// -RA ////// 15/09 Q1020 RE//

Closest aviation forecast (TAF) to Milos Airport

Forecast is more than 12 hours old.

Closest forecast is Santorini Airport, 51.5 nm (95.5 km) ESE.

2023/02/22 18:13 (retrieved 1 year ago)

TAF LGSR 221700Z 2218/2318 21012KT 9999 SCT018 BECMG 2306/2308 27010KT